createdAt,value
2022-11-30T00:02:20.307Z,83.49
2022-11-30T00:05:07.344Z,83.72
2022-11-30T00:07:54.675Z,83.68
2022-11-30T00:10:42.043Z,83.62
2022-11-30T00:13:28.477Z,83.64
2022-11-30T00:16:15.001Z,83.54
2022-11-30T00:19:04.785Z,83.28
2022-11-30T00:21:51.340Z,83.48
2022-11-30T00:24:38.197Z,83.88
2022-11-30T00:27:24.516Z,83.77
2022-11-30T00:30:11.533Z,83.60
2022-11-30T00:32:58.474Z,83.54
2022-11-30T00:35:55.934Z,83.49
2022-11-30T00:38:43.624Z,83.32
2022-11-30T00:41:29.939Z,83.04
2022-11-30T00:44:16.350Z,82.81
2022-11-30T00:47:03.058Z,82.95
2022-11-30T00:49:49.880Z,82.78
2022-11-30T00:52:36.390Z,82.73
2022-11-30T00:55:23.420Z,82.91
2022-11-30T00:58:10.172Z,82.88
2022-11-30T01:00:56.648Z,82.50
2022-11-30T01:03:43.360Z,82.39
2022-11-30T01:06:30.082Z,82.11
2022-11-30T01:09:16.679Z,82.02
2022-11-30T01:12:03.633Z,81.98
2022-11-30T01:14:49.899Z,81.97
2022-11-30T01:17:37.000Z,82.21
2022-11-30T01:20:23.436Z,82.63
2022-11-30T01:23:10.241Z,82.89
2022-11-30T01:25:57.107Z,82.88
2022-11-30T01:28:44.618Z,82.67
2022-11-30T01:31:31.122Z,82.90
2022-11-30T01:34:17.795Z,83.29
2022-11-30T01:37:04.630Z,83.44
2022-11-30T01:39:51.213Z,83.57
2022-11-30T01:42:38.134Z,83.76
2022-11-30T01:45:24.956Z,83.79
2022-11-30T01:48:11.535Z,83.77
2022-11-30T01:50:58.866Z,83.23
2022-11-30T01:53:45.649Z,83.30
2022-11-30T01:56:32.865Z,83.37
2022-11-30T01:59:22.143Z,83.36
2022-11-30T02:02:09.016Z,83.88
2022-11-30T02:04:56.207Z,84.14
2022-11-30T02:07:43.236Z,84.00
2022-11-30T02:10:32.909Z,83.44
2022-11-30T02:13:40.562Z,83.71
2022-11-30T02:16:36.224Z,83.46
2022-11-30T02:19:45.146Z,83.74
2022-11-30T02:22:52.923Z,83.68
2022-11-30T02:26:09.430Z,83.67
2022-11-30T02:29:06.829Z,83.52
2022-11-30T02:32:15.474Z,83.13
2022-11-30T02:35:07.813Z,82.83
2022-11-30T02:37:55.240Z,83.04
2022-11-30T02:40:41.655Z,82.92
2022-11-30T02:43:30.949Z,82.84
2022-11-30T02:46:30.317Z,82.75
2022-11-30T02:49:48.019Z,82.73
2022-11-30T02:52:35.527Z,82.58
2022-11-30T02:55:22.804Z,82.94
2022-11-30T02:58:09.124Z,83.50
2022-11-30T03:00:55.887Z,82.92
2022-11-30T03:03:42.610Z,83.10
2022-11-30T03:06:29.513Z,83.30
2022-11-30T03:09:16.229Z,83.70
2022-11-30T03:12:02.956Z,83.73
2022-11-30T03:14:49.674Z,83.77
2022-11-30T03:17:36.540Z,83.73
2022-11-30T03:20:23.114Z,83.69
2022-11-30T03:23:10.114Z,83.88
2022-11-30T03:25:59.895Z,84.42
2022-11-30T03:28:46.686Z,84.20
2022-11-30T03:31:33.877Z,83.86
2022-11-30T03:34:20.585Z,84.03
2022-11-30T03:37:07.535Z,84.00
2022-11-30T03:39:58.164Z,83.98
2022-11-30T03:42:45.265Z,83.31
2022-11-30T03:45:32.041Z,83.48
2022-11-30T03:48:18.645Z,83.52
2022-11-30T03:51:05.760Z,83.56
2022-11-30T03:53:52.098Z,83.68
2022-11-30T03:56:38.430Z,83.76
2022-11-30T03:59:25.219Z,83.42
2022-11-30T04:02:12.069Z,83.66
2022-11-30T04:04:58.846Z,83.88
2022-11-30T04:07:45.720Z,84.09
2022-11-30T04:10:32.128Z,83.99
2022-11-30T04:13:20.327Z,84.17
2022-11-30T04:16:07.436Z,84.00
2022-11-30T04:18:54.264Z,83.74
2022-11-30T04:21:40.494Z,83.98
2022-11-30T04:24:26.994Z,83.92
2022-11-30T04:27:13.599Z,83.94
2022-11-30T04:30:00.222Z,83.86
2022-11-30T04:32:46.843Z,83.77
2022-11-30T04:35:33.923Z,83.66
2022-11-30T04:38:20.539Z,83.87
2022-11-30T04:41:10.212Z,84.00
2022-11-30T04:43:56.650Z,83.98
2022-11-30T04:46:43.286Z,83.62
2022-11-30T04:49:29.973Z,83.91
2022-11-30T04:52:16.394Z,84.20
2022-11-30T04:55:06.860Z,83.85
2022-11-30T04:57:53.502Z,83.83
2022-11-30T05:00:40.051Z,83.38
2022-11-30T05:03:26.883Z,83.32
2022-11-30T05:06:13.581Z,83.69
2022-11-30T05:09:00.267Z,84.01
2022-11-30T05:11:48.607Z,83.66
2022-11-30T05:14:35.369Z,83.77
2022-11-30T05:17:21.629Z,83.76
2022-11-30T05:20:09.848Z,83.49
2022-11-30T05:22:57.593Z,83.28
2022-11-30T05:25:44.489Z,83.43
2022-11-30T05:28:31.100Z,83.48
2022-11-30T05:31:17.665Z,83.97
2022-11-30T05:34:04.009Z,83.93
2022-11-30T05:36:50.414Z,83.58
2022-11-30T05:39:36.853Z,83.87
2022-11-30T05:42:23.421Z,84.35
2022-11-30T05:45:10.277Z,84.31
2022-11-30T05:47:56.577Z,84.05
2022-11-30T05:50:43.075Z,83.79
2022-11-30T05:53:29.470Z,83.53
2022-11-30T05:56:18.803Z,83.28
2022-11-30T05:59:05.224Z,83.18
2022-11-30T06:01:52.766Z,83.20
2022-11-30T06:04:39.040Z,83.23
2022-11-30T06:07:25.728Z,82.79
2022-11-30T06:10:12.819Z,82.96
2022-11-30T06:12:59.137Z,82.98
2022-11-30T06:15:45.873Z,83.12
2022-11-30T06:18:33.168Z,83.17
2022-11-30T06:21:24.163Z,83.10
2022-11-30T06:24:11.202Z,83.26
2022-11-30T06:26:57.350Z,83.42
2022-11-30T06:29:44.036Z,83.50
2022-11-30T06:32:30.357Z,83.46
2022-11-30T06:35:17.346Z,83.36
2022-11-30T06:38:03.595Z,83.74
2022-11-30T06:40:50.306Z,83.60
2022-11-30T06:43:37.965Z,83.21
2022-11-30T06:46:25.120Z,83.05
2022-11-30T06:49:11.868Z,82.83
2022-11-30T06:51:58.735Z,83.00
2022-11-30T06:54:45.386Z,83.24
2022-11-30T06:57:32.109Z,83.28
2022-11-30T07:00:19.293Z,83.25
2022-11-30T07:03:06.752Z,83.07
2022-11-30T07:05:54.458Z,83.37
2022-11-30T07:08:41.509Z,83.48
2022-11-30T07:11:27.925Z,83.57
2022-11-30T07:14:14.512Z,83.53
2022-11-30T07:17:05.039Z,83.75
2022-11-30T07:19:51.705Z,83.95
2022-11-30T07:22:38.290Z,83.61
2022-11-30T07:25:43.665Z,83.51
2022-11-30T07:28:30.179Z,83.56
2022-11-30T07:31:31.121Z,83.65
2022-11-30T07:34:17.639Z,83.49
2022-11-30T07:37:04.442Z,83.99
2022-11-30T07:39:50.612Z,84.69
2022-11-30T07:42:37.228Z,84.90
2022-11-30T07:45:23.591Z,84.82
2022-11-30T07:48:10.208Z,84.64
2022-11-30T07:51:05.395Z,84.75
2022-11-30T07:53:52.544Z,84.63
2022-11-30T07:56:40.240Z,84.42
2022-11-30T07:59:26.587Z,84.47
2022-11-30T08:02:13.347Z,84.03
2022-11-30T08:05:00.479Z,83.99
2022-11-30T08:07:51.000Z,84.09
2022-11-30T08:10:38.538Z,84.42
2022-11-30T08:13:25.457Z,84.38
2022-11-30T08:16:18.245Z,84.34
2022-11-30T08:19:06.142Z,84.60
2022-11-30T08:21:52.813Z,85.29
2022-11-30T08:24:39.347Z,85.24
2022-11-30T08:27:26.538Z,85.20
2022-11-30T08:30:13.229Z,85.07
2022-11-30T08:32:59.968Z,85.74
2022-11-30T08:35:46.361Z,86.21
2022-11-30T08:38:32.856Z,86.61
2022-11-30T08:41:21.483Z,86.44
2022-11-30T08:44:07.967Z,86.18
2022-11-30T08:46:54.216Z,86.03
2022-11-30T08:49:40.838Z,86.22
2022-11-30T08:52:27.981Z,85.98
2022-11-30T08:55:14.877Z,86.10
2022-11-30T08:58:01.191Z,86.32
2022-11-30T09:00:47.745Z,86.44
2022-11-30T09:03:34.795Z,86.26
2022-11-30T09:06:28.571Z,86.41
2022-11-30T09:09:14.989Z,86.15
2022-11-30T09:12:01.739Z,86.13
2022-11-30T09:14:52.536Z,85.96
2022-11-30T09:17:44.779Z,85.94
2022-11-30T09:20:34.108Z,86.43
2022-11-30T09:23:20.406Z,86.30
2022-11-30T09:26:09.470Z,86.07
2022-11-30T09:28:55.902Z,86.00
2022-11-30T09:31:42.457Z,86.21
2022-11-30T09:34:29.057Z,85.94
2022-11-30T09:37:15.563Z,86.28
2022-11-30T09:40:02.355Z,86.86
2022-11-30T09:43:02.417Z,86.61
2022-11-30T09:45:56.757Z,86.46
2022-11-30T09:48:55.397Z,86.46
2022-11-30T09:51:47.545Z,86.41
2022-11-30T09:54:40.347Z,86.34
2022-11-30T09:57:31.906Z,86.64
2022-11-30T10:00:24.342Z,86.57
2022-11-30T10:03:11.739Z,87.21
2022-11-30T10:06:11.547Z,87.31
2022-11-30T10:09:23.512Z,87.16
2022-11-30T10:12:22.830Z,86.96
2022-11-30T10:15:31.288Z,87.26
2022-11-30T10:18:40.952Z,86.78
2022-11-30T10:21:44.386Z,86.55
2022-11-30T10:24:40.083Z,86.27
2022-11-30T10:27:32.345Z,85.99
2022-11-30T10:30:39.151Z,85.69
2022-11-30T10:33:37.116Z,85.40
2022-11-30T10:36:36.231Z,85.41
2022-11-30T10:39:31.965Z,85.14
2022-11-30T10:42:28.243Z,85.21
2022-11-30T10:45:19.833Z,85.55
2022-11-30T10:48:15.277Z,85.51
2022-11-30T10:51:04.595Z,85.75
2022-11-30T10:53:51.003Z,85.82
2022-11-30T10:56:37.468Z,85.48
2022-11-30T10:59:46.013Z,85.17
2022-11-30T11:02:41.694Z,85.43
2022-11-30T11:05:31.005Z,85.23
2022-11-30T11:08:25.890Z,85.33
2022-11-30T11:11:38.919Z,85.22
2022-11-30T11:14:28.170Z,85.24
2022-11-30T11:17:17.835Z,85.19
2022-11-30T11:20:27.571Z,85.58
2022-11-30T11:23:27.649Z,86.23
2022-11-30T11:26:28.457Z,86.66
2022-11-30T11:29:33.700Z,86.37
2022-11-30T11:32:27.133Z,86.14
2022-11-30T11:35:34.010Z,86.21
2022-11-30T11:38:21.516Z,86.35
2022-11-30T11:41:26.728Z,86.35
2022-11-30T11:44:13.630Z,86.25
2022-11-30T11:47:05.531Z,86.33
2022-11-30T11:50:04.747Z,86.61
2022-11-30T11:53:25.187Z,86.79
2022-11-30T11:56:21.025Z,86.98
2022-11-30T11:59:10.724Z,87.29
2022-11-30T12:02:19.333Z,87.51
2022-11-30T12:05:17.909Z,87.33
2022-11-30T12:08:25.974Z,86.82
2022-11-30T12:11:44.913Z,86.69
2022-11-30T12:14:35.629Z,86.70
2022-11-30T12:17:35.123Z,86.82
2022-11-30T12:20:36.090Z,87.20
2022-11-30T12:24:08.405Z,86.98
2022-11-30T12:27:04.366Z,87.88
2022-11-30T12:30:27.030Z,88.42
2022-11-30T12:33:26.052Z,89.00
2022-11-30T12:36:40.823Z,89.00
2022-11-30T12:39:50.205Z,88.96
2022-11-30T12:43:01.533Z,88.94
2022-11-30T12:45:50.392Z,88.87
2022-11-30T12:49:05.918Z,88.33
2022-11-30T12:52:03.369Z,89.15
2022-11-30T12:55:00.421Z,88.86
2022-11-30T12:58:27.943Z,88.97
2022-11-30T13:01:29.647Z,89.01
2022-11-30T13:04:37.985Z,88.54
2022-11-30T13:07:29.291Z,88.02
2022-11-30T13:10:32.678Z,87.56
2022-11-30T13:13:26.922Z,87.26
2022-11-30T13:16:14.006Z,87.05
2022-11-30T13:19:39.040Z,86.80
2022-11-30T13:22:50.754Z,86.67
2022-11-30T13:26:10.220Z,86.48
2022-11-30T13:29:04.246Z,86.30
2022-11-30T13:32:06.595Z,86.23
2022-11-30T13:34:53.381Z,86.23
2022-11-30T13:37:39.827Z,86.15
2022-11-30T13:40:26.351Z,86.01
2022-11-30T13:43:21.261Z,86.28
2022-11-30T13:46:13.631Z,86.52
2022-11-30T13:49:31.214Z,86.41
2022-11-30T13:53:00.691Z,86.61
2022-11-30T13:56:08.115Z,86.68
2022-11-30T13:59:25.613Z,86.36
2022-11-30T14:05:49.429Z,86.15
2022-11-30T14:08:38.453Z,86.31
2022-11-30T14:11:43.048Z,86.24
2022-11-30T14:14:45.831Z,86.13
2022-11-30T14:17:36.139Z,85.72
2022-11-30T14:20:26.229Z,85.42
2022-11-30T14:23:19.118Z,85.41
2022-11-30T14:26:37.325Z,85.31
2022-11-30T14:29:42.177Z,85.60
2022-11-30T14:32:42.674Z,85.88
2022-11-30T14:35:33.762Z,85.90
2022-11-30T14:38:32.083Z,85.83
2022-11-30T14:41:26.050Z,85.62
2022-11-30T14:44:14.364Z,85.31
2022-11-30T14:47:19.614Z,85.20
2022-11-30T14:50:06.759Z,85.24
2022-11-30T14:53:20.356Z,85.12
2022-11-30T14:56:28.612Z,85.37
2022-11-30T14:59:45.449Z,85.37
2022-11-30T15:02:39.289Z,85.42
2022-11-30T15:05:27.251Z,85.68
2022-11-30T15:08:16.791Z,86.09
2022-11-30T15:11:11.002Z,86.33
2022-11-30T15:14:08.213Z,86.48
2022-11-30T15:16:58.331Z,86.57
2022-11-30T15:19:48.379Z,86.14
2022-11-30T15:22:35.426Z,85.90
2022-11-30T15:25:25.364Z,85.79
2022-11-30T15:28:17.973Z,85.76
2022-11-30T15:31:09.118Z,85.37
2022-11-30T15:33:56.156Z,85.13
2022-11-30T15:36:42.778Z,85.10
2022-11-30T15:39:30.233Z,85.48
2022-11-30T15:42:26.693Z,85.32
2022-11-30T15:45:29.700Z,85.51
2022-11-30T15:48:37.971Z,85.26
2022-11-30T15:51:24.690Z,85.88
2022-11-30T15:54:11.218Z,85.63
2022-11-30T15:57:09.192Z,85.61
2022-11-30T16:00:16.835Z,85.62
2022-11-30T16:03:08.582Z,85.53
2022-11-30T16:06:00.526Z,85.14
2022-11-30T16:08:47.879Z,84.91
2022-11-30T16:11:35.180Z,84.83
2022-11-30T16:14:22.191Z,84.73
2022-11-30T16:17:10.889Z,84.70
2022-11-30T16:19:57.241Z,85.56
2022-11-30T16:22:45.737Z,85.55
2022-11-30T16:25:32.210Z,85.49
2022-11-30T16:28:20.648Z,85.31
2022-11-30T16:31:07.441Z,85.22
2022-11-30T16:33:53.902Z,86.01
2022-11-30T16:36:42.974Z,86.02
2022-11-30T16:39:29.557Z,85.45
2022-11-30T16:42:15.920Z,85.39
2022-11-30T16:45:02.497Z,85.11
2022-11-30T16:47:49.979Z,84.96
2022-11-30T16:50:37.144Z,84.90
2022-11-30T16:53:31.290Z,84.50
2022-11-30T16:56:18.446Z,84.27
2022-11-30T16:59:05.505Z,83.90
2022-11-30T17:01:53.315Z,83.29
2022-11-30T17:04:40.541Z,82.93
2022-11-30T17:07:27.306Z,82.68
2022-11-30T17:10:17.341Z,82.51
2022-11-30T17:13:05.042Z,81.81
2022-11-30T17:15:51.498Z,82.20
2022-11-30T17:18:37.782Z,82.26
2022-11-30T17:21:28.184Z,82.18
2022-11-30T17:24:15.062Z,82.32
2022-11-30T17:27:01.516Z,82.45
2022-11-30T17:29:48.156Z,82.41
2022-11-30T17:32:35.932Z,82.28
2022-11-30T17:35:25.931Z,81.95
2022-11-30T17:38:23.387Z,82.33
2022-11-30T17:41:19.748Z,82.26
2022-11-30T17:44:06.635Z,82.22
2022-11-30T17:46:54.289Z,81.85
2022-11-30T17:49:42.876Z,81.53
2022-11-30T17:52:30.076Z,81.73
2022-11-30T17:55:16.889Z,82.08
2022-11-30T17:58:03.559Z,81.98
2022-11-30T18:00:51.643Z,81.95
2022-11-30T18:03:39.803Z,81.63
2022-11-30T18:06:27.097Z,81.37
2022-11-30T18:09:28.376Z,81.84
2022-11-30T18:12:15.137Z,82.63
2022-11-30T18:15:01.428Z,82.47
2022-11-30T18:17:52.846Z,82.42
2022-11-30T18:20:53.730Z,82.28
2022-11-30T18:23:49.113Z,82.21
2022-11-30T18:26:39.061Z,81.91
2022-11-30T18:29:25.766Z,81.82
2022-11-30T18:32:12.443Z,81.56
2022-11-30T18:34:59.083Z,81.10
2022-11-30T18:37:45.695Z,81.29
2022-11-30T18:40:32.039Z,81.39
2022-11-30T18:43:18.566Z,81.37
2022-11-30T18:46:07.438Z,80.92
2022-11-30T18:48:54.735Z,80.84
2022-11-30T18:51:43.403Z,80.86
2022-11-30T18:54:31.644Z,80.79
2022-11-30T18:57:18.000Z,80.80
2022-11-30T19:00:05.658Z,80.81
2022-11-30T19:02:52.627Z,81.10
2022-11-30T19:05:41.376Z,81.08
2022-11-30T19:08:35.269Z,80.99
2022-11-30T19:11:35.775Z,81.06
2022-11-30T19:14:24.012Z,80.79
2022-11-30T19:17:11.678Z,80.95
2022-11-30T19:20:00.668Z,80.93
2022-11-30T19:22:49.745Z,80.78
2022-11-30T19:25:37.889Z,80.82
2022-11-30T19:28:38.079Z,80.68
2022-11-30T19:31:29.066Z,80.83
2022-11-30T19:34:15.817Z,80.93
2022-11-30T19:37:02.373Z,80.64
2022-11-30T19:39:51.330Z,80.56
2022-11-30T19:42:38.301Z,80.58
2022-11-30T19:45:25.504Z,80.79
2022-11-30T19:48:17.639Z,80.91
2022-11-30T19:51:17.575Z,80.95
2022-11-30T19:54:05.036Z,80.92
2022-11-30T19:56:51.740Z,81.00
2022-11-30T19:59:38.746Z,81.02
2022-11-30T20:02:32.322Z,81.04
2022-11-30T20:05:19.261Z,80.95
2022-11-30T20:08:06.519Z,81.04
2022-11-30T20:10:53.643Z,81.25
2022-11-30T20:13:40.453Z,81.46
2022-11-30T20:16:27.523Z,81.50
2022-11-30T20:19:15.530Z,81.60
2022-11-30T20:22:04.991Z,81.73
2022-11-30T20:24:55.694Z,81.79
2022-11-30T20:27:42.190Z,81.57
2022-11-30T20:30:30.218Z,81.60
2022-11-30T20:33:16.691Z,81.71
2022-11-30T20:36:08.075Z,81.76
2022-11-30T20:38:57.389Z,81.94
2022-11-30T20:41:47.424Z,81.98
2022-11-30T20:44:35.127Z,82.35
2022-11-30T20:47:25.009Z,82.46
2022-11-30T20:50:11.986Z,82.40
2022-11-30T20:52:58.667Z,82.61
2022-11-30T20:55:45.470Z,82.54
2022-11-30T20:58:32.421Z,82.55
2022-11-30T21:01:22.921Z,82.77
2022-11-30T21:04:12.853Z,82.79
2022-11-30T21:07:01.456Z,82.92
2022-11-30T21:09:48.229Z,83.00
2022-11-30T21:12:34.871Z,82.87
2022-11-30T21:15:21.075Z,82.79
2022-11-30T21:18:08.224Z,82.89
2022-11-30T21:21:02.204Z,82.85
2022-11-30T21:23:50.618Z,83.00
2022-11-30T21:26:40.043Z,83.22
2022-11-30T21:29:26.870Z,83.35
2022-11-30T21:32:14.660Z,83.46
2022-11-30T21:35:04.065Z,83.31
2022-11-30T21:38:16.909Z,83.48
2022-11-30T21:41:04.676Z,83.56
2022-11-30T21:43:50.996Z,83.46
2022-11-30T21:46:37.305Z,83.29
2022-11-30T21:49:26.973Z,83.35
2022-11-30T21:52:13.419Z,83.46
2022-11-30T21:54:59.996Z,83.55
2022-11-30T21:57:46.424Z,83.41
2022-11-30T22:00:34.033Z,83.55
2022-11-30T22:03:22.907Z,83.52
2022-11-30T22:06:12.341Z,84.61
2022-11-30T22:09:03.509Z,84.59
2022-11-30T22:11:50.251Z,84.89
2022-11-30T22:14:36.693Z,84.37
2022-11-30T22:17:23.330Z,84.07
2022-11-30T22:20:10.522Z,84.11
2022-11-30T22:22:56.904Z,84.36
2022-11-30T22:25:43.480Z,84.57
2022-11-30T22:28:30.010Z,84.53
2022-11-30T22:31:19.050Z,84.43
2022-11-30T22:34:06.660Z,84.47
2022-11-30T22:36:53.067Z,84.67
2022-11-30T22:39:40.393Z,84.81
2022-11-30T22:42:27.095Z,85.00
2022-11-30T22:45:13.796Z,85.25
2022-11-30T22:48:00.389Z,85.43
2022-11-30T22:50:46.971Z,85.47
2022-11-30T22:53:35.137Z,85.55
2022-11-30T22:56:27.696Z,85.70
2022-11-30T22:59:15.749Z,85.92
2022-11-30T23:02:04.318Z,86.11
2022-11-30T23:04:51.276Z,86.32
2022-11-30T23:07:38.020Z,86.43
2022-11-30T23:10:24.696Z,86.63
2022-11-30T23:13:11.513Z,86.96
2022-11-30T23:15:59.971Z,87.01
2022-11-30T23:18:55.578Z,87.18
2022-11-30T23:21:44.854Z,87.63
2022-11-30T23:24:31.854Z,87.71
2022-11-30T23:27:18.558Z,87.68
2022-11-30T23:30:06.040Z,87.86
2022-11-30T23:32:55.339Z,87.77
2022-11-30T23:35:45.391Z,87.94
2022-11-30T23:38:32.268Z,87.74
2022-11-30T23:41:19.131Z,87.80
2022-11-30T23:44:06.179Z,87.88
2022-11-30T23:46:52.776Z,87.70
2022-11-30T23:49:39.253Z,87.89
2022-11-30T23:52:25.842Z,88.01
2022-11-30T23:55:12.431Z,87.93
2022-11-30T23:57:59.147Z,88.09
